Ketchikan, AK

12:56 PM AKST on January 19, 2017 (GMT -0900)
Ketchikan International | | Change Station

Elev 85 ft 55.36 °N, 131.71 °W | Updated 3 minutes ago

Light Rain
Light Rain
37 °F
Feels Like 31 °F
N
9
Wind Variable Wind from North

Today
High -- | Low -- °F
--% Chance of Precip.
Yesterday
High -- | Low -- °F
Precip. -- in
Pressure 29.21 in
Visibility 10.0 miles
Clouds Few 1800 ft
Mostly Cloudy 2500 ft
Overcast 3300 ft
Windchill 31 °F
Dew Point 37 °F
Humidity 100%
Rainfall 0.20 in
Snow Depth Not available.
7:58 AM 3:57 PM
Waning Gibbous, 50% visible
METAR PAKT 192153Z 35008KT 10SM -RA FEW018 BKN025 OVC033 03/03 A2921 RMK AO2 SLP891 HARBOR
Pressure 29.21 in
Visibility 10.0 miles
Clouds Few 1800 ft
Mostly Cloudy 2500 ft
Overcast 3300 ft
Windchill 31 °F
Dew Point 37 °F
Humidity 100%
Rainfall 0.20 in
Snow Depth Not available.
7:58 AM 3:57 PM
Waning Gibbous, 50% visible
METAR PAKT 192153Z 35008KT 10SM -RA FEW018 BKN025 OVC033 03/03 A2921 RMK AO2 SLP891 HARBOR

Get Your Daily Forecast Email!

Thanks for signing up!

Be on the lookout for a verification email in your inbox.

You'll start receiving the daily forecast at 8 AM.

×

10-Day Weather Forecast

Almanac

Astronomy

Jan. 19, 2017 Rise Set
Actual Time
Civil Twilight
Nautical Twilight
Astronomical Twilight
Moon
Length of Visible Light
Length of Day
Tomorrow will be .
, % of the Moon is Illuminated

Today's Extremes

State Highs State Lows

Community

WunderPhotos

Upload Photos

1,962,540 photos uploaded!

WunderBlog® & News

Nearby

Air Quality

  Air Quality AQ Index Pollutant
Not available.

Snow Depth

Station Depth Elevation

Earthquake Activity

City Distance Mag. Time & Date
Minimum magnitude displayed is 2.5.

Coastal Water Temperatures

Place Temperature

Stations

Nearby Weather Stations

Station Location Temp. Windchill Dew Point Humidity Wind Precip. Elev Updated Type
                   

Watches & Warnings

There are currently no watches in effect.